sensor_id;sensor_type;location;lat;lon;timestamp;P1;durP1;ratioP1;P2;durP2;ratioP2
17917;SDS011;9084;50.956;3.106;2023-09-19T00:00:44;3.53;;;1.40;;
17917;SDS011;9084;50.956;3.106;2023-09-19T00:03:11;4.07;;;1.35;;
17917;SDS011;9084;50.956;3.106;2023-09-19T00:05:37;4.40;;;1.45;;
17917;SDS011;9084;50.956;3.106;2023-09-19T00:08:04;5.95;;;1.70;;
17917;SDS011;9084;50.956;3.106;2023-09-19T00:10:35;7.30;;;1.70;;
17917;SDS011;9084;50.956;3.106;2023-09-19T00:13:04;4.20;;;1.90;;
17917;SDS011;9084;50.956;3.106;2023-09-19T00:15:36;5.00;;;1.63;;
17917;SDS011;9084;50.956;3.106;2023-09-19T00:18:03;4.68;;;1.60;;
17917;SDS011;9084;50.956;3.106;2023-09-19T00:20:36;6.75;;;2.17;;
17917;SDS011;9084;50.956;3.106;2023-09-19T00:23:05;4.60;;;1.80;;
17917;SDS011;9084;50.956;3.106;2023-09-19T00:25:33;4.45;;;1.70;;
17917;SDS011;9084;50.956;3.106;2023-09-19T00:28:00;3.95;;;1.60;;
17917;SDS011;9084;50.956;3.106;2023-09-19T00:30:26;5.60;;;1.92;;
17917;SDS011;9084;50.956;3.106;2023-09-19T00:32:52;4.85;;;1.83;;
17917;SDS011;9084;50.956;3.106;2023-09-19T00:35:20;5.25;;;1.77;;
17917;SDS011;9084;50.956;3.106;2023-09-19T00:37:49;8.15;;;2.05;;
17917;SDS011;9084;50.956;3.106;2023-09-19T00:40:15;5.50;;;1.70;;
17917;SDS011;9084;50.956;3.106;2023-09-19T00:42:42;7.95;;;2.28;;
17917;SDS011;9084;50.956;3.106;2023-09-19T00:45:09;4.57;;;2.35;;
17917;SDS011;9084;50.956;3.106;2023-09-19T00:47:42;5.00;;;2.10;;
17917;SDS011;9084;50.956;3.106;2023-09-19T00:50:13;4.07;;;1.90;;
17917;SDS011;9084;50.956;3.106;2023-09-19T00:52:42;4.30;;;1.80;;
17917;SDS011;9084;50.956;3.106;2023-09-19T00:55:11;4.07;;;1.80;;
17917;SDS011;9084;50.956;3.106;2023-09-19T00:57:38;9.07;;;2.10;;
17917;SDS011;9084;50.956;3.106;2023-09-19T01:00:07;7.28;;;2.30;;
17917;SDS011;9084;50.956;3.106;2023-09-19T01:02:41;6.20;;;2.05;;
17917;SDS011;9084;50.956;3.106;2023-09-19T01:05:08;6.53;;;2.35;;
17917;SDS011;9084;50.956;3.106;2023-09-19T01:07:35;5.63;;;2.00;;
17917;SDS011;9084;50.956;3.106;2023-09-19T01:10:04;5.63;;;1.90;;
17917;SDS011;9084;50.956;3.106;2023-09-19T01:18:02;4.40;;;1.80;;
17917;SDS011;9084;50.956;3.106;2023-09-19T01:20:53;7.70;;;2.53;;
17917;SDS011;9084;50.956;3.106;2023-09-19T01:29:42;7.60;;;2.38;;
17917;SDS011;9084;50.956;3.106;2023-09-19T01:32:11;4.90;;;2.00;;
17917;SDS011;9084;50.956;3.106;2023-09-19T01:34:53;4.65;;;2.25;;
17917;SDS011;9084;50.956;3.106;2023-09-19T01:37:29;7.97;;;2.50;;
17917;SDS011;9084;50.956;3.106;2023-09-19T01:39:57;6.20;;;2.10;;
17917;SDS011;9084;50.956;3.106;2023-09-19T01:45:22;9.50;;;2.78;;
17917;SDS011;9084;50.956;3.106;2023-09-19T01:47:52;6.53;;;2.45;;
17917;SDS011;9084;50.956;3.106;2023-09-19T01:53:27;7.22;;;2.47;;
17917;SDS011;9084;50.956;3.106;2023-09-19T01:55:56;9.43;;;2.35;;
17917;SDS011;9084;50.956;3.106;2023-09-19T02:01:15;7.68;;;2.63;;
17917;SDS011;9084;50.956;3.106;2023-09-19T02:03:44;6.68;;;2.53;;
17917;SDS011;9084;50.956;3.106;2023-09-19T02:06:14;5.00;;;2.13;;
17917;SDS011;9084;50.956;3.106;2023-09-19T02:08:44;4.95;;;1.95;;
17917;SDS011;9084;50.956;3.106;2023-09-19T02:11:10;5.55;;;1.70;;
17917;SDS011;9084;50.956;3.106;2023-09-19T02:13:39;6.57;;;2.08;;
17917;SDS011;9084;50.956;3.106;2023-09-19T02:16:06;4.32;;;1.67;;
17917;SDS011;9084;50.956;3.106;2023-09-19T02:18:32;7.40;;;1.75;;
17917;SDS011;9084;50.956;3.106;2023-09-19T02:21:00;6.30;;;2.22;;
17917;SDS011;9084;50.956;3.106;2023-09-19T02:23:26;6.55;;;2.20;;
17917;SDS011;9084;50.956;3.106;2023-09-19T02:25:58;6.38;;;2.08;;
17917;SDS011;9084;50.956;3.106;2023-09-19T02:28:28;5.57;;;2.00;;
17917;SDS011;9084;50.956;3.106;2023-09-19T02:31:00;4.55;;;1.92;;
17917;SDS011;9084;50.956;3.106;2023-09-19T02:33:26;6.97;;;2.58;;
17917;SDS011;9084;50.956;3.106;2023-09-19T02:36:00;7.78;;;1.98;;
17917;SDS011;9084;50.956;3.106;2023-09-19T02:38:28;6.38;;;2.17;;
17917;SDS011;9084;50.956;3.106;2023-09-19T02:40:57;6.47;;;2.15;;
17917;SDS011;9084;50.956;3.106;2023-09-19T02:43:27;5.63;;;1.90;;
17917;SDS011;9084;50.956;3.106;2023-09-19T02:45:52;8.10;;;2.33;;
17917;SDS011;9084;50.956;3.106;2023-09-19T02:48:18;7.63;;;2.05;;
17917;SDS011;9084;50.956;3.106;2023-09-19T02:50:44;7.20;;;2.10;;
17917;SDS011;9084;50.956;3.106;2023-09-19T02:53:13;4.90;;;1.70;;
17917;SDS011;9084;50.956;3.106;2023-09-19T02:55:39;6.40;;;2.35;;
17917;SDS011;9084;50.956;3.106;2023-09-19T02:58:07;6.72;;;2.10;;
17917;SDS011;9084;50.956;3.106;2023-09-19T03:00:34;5.32;;;2.00;;
17917;SDS011;9084;50.956;3.106;2023-09-19T03:03:02;9.65;;;2.65;;
17917;SDS011;9084;50.956;3.106;2023-09-19T03:05:36;7.40;;;2.03;;
17917;SDS011;9084;50.956;3.106;2023-09-19T03:08:04;7.72;;;2.63;;
17917;SDS011;9084;50.956;3.106;2023-09-19T03:10:32;5.53;;;2.17;;
17917;SDS011;9084;50.956;3.106;2023-09-19T03:12:58;5.80;;;2.20;;
17917;SDS011;9084;50.956;3.106;2023-09-19T03:15:25;6.60;;;2.15;;
17917;SDS011;9084;50.956;3.106;2023-09-19T03:17:50;7.88;;;2.72;;
17917;SDS011;9084;50.956;3.106;2023-09-19T03:20:18;7.53;;;2.40;;
17917;SDS011;9084;50.956;3.106;2023-09-19T03:22:47;8.32;;;2.60;;
17917;SDS011;9084;50.956;3.106;2023-09-19T03:25:15;6.60;;;2.58;;
17917;SDS011;9084;50.956;3.106;2023-09-19T03:27:42;4.80;;;1.85;;
17917;SDS011;9084;50.956;3.106;2023-09-19T03:30:10;5.93;;;2.10;;
17917;SDS011;9084;50.956;3.106;2023-09-19T03:32:44;5.47;;;2.05;;
17917;SDS011;9084;50.956;3.106;2023-09-19T03:35:11;7.72;;;2.63;;
17917;SDS011;9084;50.956;3.106;2023-09-19T03:37:39;8.45;;;2.30;;
17917;SDS011;9084;50.956;3.106;2023-09-19T03:40:09;5.97;;;2.25;;
17917;SDS011;9084;50.956;3.106;2023-09-19T03:42:38;6.47;;;2.42;;
17917;SDS011;9084;50.956;3.106;2023-09-19T03:45:05;6.03;;;2.22;;
17917;SDS011;9084;50.956;3.106;2023-09-19T03:47:38;8.77;;;2.53;;
17917;SDS011;9084;50.956;3.106;2023-09-19T03:50:04;5.30;;;2.17;;
17917;SDS011;9084;50.956;3.106;2023-09-19T03:52:33;8.63;;;2.60;;
17917;SDS011;9084;50.956;3.106;2023-09-19T03:55:01;6.25;;;2.33;;
17917;SDS011;9084;50.956;3.106;2023-09-19T03:57:30;7.60;;;2.40;;
17917;SDS011;9084;50.956;3.106;2023-09-19T04:00:01;7.10;;;2.33;;
17917;SDS011;9084;50.956;3.106;2023-09-19T04:02:27;7.47;;;2.42;;
17917;SDS011;9084;50.956;3.106;2023-09-19T04:04:58;10.85;;;2.60;;
17917;SDS011;9084;50.956;3.106;2023-09-19T04:07:23;8.00;;;2.70;;
17917;SDS011;9084;50.956;3.106;2023-09-19T04:09:51;7.60;;;2.55;;
17917;SDS011;9084;50.956;3.106;2023-09-19T04:12:18;10.40;;;2.92;;
17917;SDS011;9084;50.956;3.106;2023-09-19T04:14:49;7.68;;;2.40;;
17917;SDS011;9084;50.956;3.106;2023-09-19T04:17:15;6.63;;;2.45;;
17917;SDS011;9084;50.956;3.106;2023-09-19T04:19:41;6.38;;;2.03;;
17917;SDS011;9084;50.956;3.106;2023-09-19T04:22:10;7.07;;;2.50;;
17917;SDS011;9084;50.956;3.106;2023-09-19T04:24:39;7.32;;;2.58;;
17917;SDS011;9084;50.956;3.106;2023-09-19T04:27:05;6.38;;;2.13;;
17917;SDS011;9084;50.956;3.106;2023-09-19T04:29:34;8.27;;;2.53;;
17917;SDS011;9084;50.956;3.106;2023-09-19T04:32:00;11.70;;;2.53;;
17917;SDS011;9084;50.956;3.106;2023-09-19T04:34:26;6.70;;;2.17;;
17917;SDS011;9084;50.956;3.106;2023-09-19T04:36:54;5.72;;;2.15;;
17917;SDS011;9084;50.956;3.106;2023-09-19T04:39:21;6.45;;;2.15;;
17917;SDS011;9084;50.956;3.106;2023-09-19T04:41:51;8.63;;;2.17;;
17917;SDS011;9084;50.956;3.106;2023-09-19T04:44:17;5.97;;;2.40;;
17917;SDS011;9084;50.956;3.106;2023-09-19T04:46:43;6.35;;;1.95;;
17917;SDS011;9084;50.956;3.106;2023-09-19T04:49:11;6.30;;;2.08;;
17917;SDS011;9084;50.956;3.106;2023-09-19T04:51:37;6.93;;;2.25;;
17917;SDS011;9084;50.956;3.106;2023-09-19T04:54:03;6.10;;;1.88;;
17917;SDS011;9084;50.956;3.106;2023-09-19T04:56:29;5.78;;;1.73;;
17917;SDS011;9084;50.956;3.106;2023-09-19T04:58:55;6.90;;;2.45;;
17917;SDS011;9084;50.956;3.106;2023-09-19T05:01:24;5.38;;;2.00;;
17917;SDS011;9084;50.956;3.106;2023-09-19T05:03:50;6.07;;;1.77;;
17917;SDS011;9084;50.956;3.106;2023-09-19T05:06:19;10.27;;;2.45;;
17917;SDS011;9084;50.956;3.106;2023-09-19T05:08:51;6.43;;;2.28;;
17917;SDS011;9084;50.956;3.106;2023-09-19T05:11:19;5.43;;;1.85;;
17917;SDS011;9084;50.956;3.106;2023-09-19T05:13:49;7.05;;;2.22;;
17917;SDS011;9084;50.956;3.106;2023-09-19T05:16:18;8.55;;;2.60;;
17917;SDS011;9084;50.956;3.106;2023-09-19T05:18:47;7.75;;;2.17;;
17917;SDS011;9084;50.956;3.106;2023-09-19T05:21:12;6.72;;;2.13;;
17917;SDS011;9084;50.956;3.106;2023-09-19T05:23:38;6.93;;;2.40;;
17917;SDS011;9084;50.956;3.106;2023-09-19T05:26:03;5.57;;;2.10;;
17917;SDS011;9084;50.956;3.106;2023-09-19T05:28:31;5.38;;;2.13;;
17917;SDS011;9084;50.956;3.106;2023-09-19T05:31:02;6.32;;;1.92;;
17917;SDS011;9084;50.956;3.106;2023-09-19T05:33:32;6.35;;;1.88;;
17917;SDS011;9084;50.956;3.106;2023-09-19T05:35:58;8.70;;;2.35;;
17917;SDS011;9084;50.956;3.106;2023-09-19T05:38:23;6.18;;;2.20;;
17917;SDS011;9084;50.956;3.106;2023-09-19T05:40:54;7.90;;;1.83;;
17917;SDS011;9084;50.956;3.106;2023-09-19T05:43:20;4.88;;;1.95;;
17917;SDS011;9084;50.956;3.106;2023-09-19T05:45:48;7.00;;;2.33;;
17917;SDS011;9084;50.956;3.106;2023-09-19T05:48:16;8.18;;;2.10;;
17917;SDS011;9084;50.956;3.106;2023-09-19T05:50:42;6.68;;;2.05;;
17917;SDS011;9084;50.956;3.106;2023-09-19T05:53:10;6.97;;;2.22;;
17917;SDS011;9084;50.956;3.106;2023-09-19T05:55:39;8.30;;;2.67;;
17917;SDS011;9084;50.956;3.106;2023-09-19T05:58:08;9.77;;;2.67;;
17917;SDS011;9084;50.956;3.106;2023-09-19T06:00:39;7.32;;;2.55;;
17917;SDS011;9084;50.956;3.106;2023-09-19T06:03:06;5.55;;;1.85;;
17917;SDS011;9084;50.956;3.106;2023-09-19T06:05:35;6.30;;;2.22;;
17917;SDS011;9084;50.956;3.106;2023-09-19T06:08:01;4.25;;;2.08;;
17917;SDS011;9084;50.956;3.106;2023-09-19T06:10:32;8.43;;;2.35;;
17917;SDS011;9084;50.956;3.106;2023-09-19T06:13:00;6.45;;;2.50;;
17917;SDS011;9084;50.956;3.106;2023-09-19T06:15:29;6.82;;;2.05;;
17917;SDS011;9084;50.956;3.106;2023-09-19T06:17:57;5.75;;;2.08;;
17917;SDS011;9084;50.956;3.106;2023-09-19T06:20:27;4.90;;;1.90;;
17917;SDS011;9084;50.956;3.106;2023-09-19T06:22:53;5.30;;;1.73;;
17917;SDS011;9084;50.956;3.106;2023-09-19T06:25:19;6.97;;;2.50;;
17917;SDS011;9084;50.956;3.106;2023-09-19T06:27:47;6.38;;;1.88;;
17917;SDS011;9084;50.956;3.106;2023-09-19T06:30:13;7.55;;;2.33;;
17917;SDS011;9084;50.956;3.106;2023-09-19T06:32:40;4.80;;;2.00;;
17917;SDS011;9084;50.956;3.106;2023-09-19T06:35:11;5.72;;;2.35;;
17917;SDS011;9084;50.956;3.106;2023-09-19T06:37:38;6.25;;;2.20;;
17917;SDS011;9084;50.956;3.106;2023-09-19T06:40:08;6.85;;;2.30;;
17917;SDS011;9084;50.956;3.106;2023-09-19T06:45:07;7.30;;;2.33;;
17917;SDS011;9084;50.956;3.106;2023-09-19T06:47:38;6.85;;;2.20;;
17917;SDS011;9084;50.956;3.106;2023-09-19T06:50:04;4.55;;;1.65;;
17917;SDS011;9084;50.956;3.106;2023-09-19T06:52:33;4.07;;;1.83;;
17917;SDS011;9084;50.956;3.106;2023-09-19T06:55:01;6.68;;;2.35;;
17917;SDS011;9084;50.956;3.106;2023-09-19T06:57:28;4.82;;;2.33;;
17917;SDS011;9084;50.956;3.106;2023-09-19T06:59:57;8.43;;;2.17;;
17917;SDS011;9084;50.956;3.106;2023-09-19T07:02:22;8.15;;;2.53;;
17917;SDS011;9084;50.956;3.106;2023-09-19T07:04:50;6.15;;;2.33;;
17917;SDS011;9084;50.956;3.106;2023-09-19T07:07:16;6.25;;;1.60;;
17917;SDS011;9084;50.956;3.106;2023-09-19T07:09:41;7.47;;;2.20;;
17917;SDS011;9084;50.956;3.106;2023-09-19T07:12:07;5.38;;;1.83;;
17917;SDS011;9084;50.956;3.106;2023-09-19T07:14:33;8.43;;;2.45;;
17917;SDS011;9084;50.956;3.106;2023-09-19T07:17:01;3.38;;;1.30;;
17917;SDS011;9084;50.956;3.106;2023-09-19T07:19:29;6.10;;;1.90;;
17917;SDS011;9084;50.956;3.106;2023-09-19T07:21:56;7.07;;;2.17;;
17917;SDS011;9084;50.956;3.106;2023-09-19T07:24:24;4.72;;;1.90;;
17917;SDS011;9084;50.956;3.106;2023-09-19T07:26:54;7.18;;;2.10;;
17917;SDS011;9084;50.956;3.106;2023-09-19T07:29:19;5.47;;;1.45;;
17917;SDS011;9084;50.956;3.106;2023-09-19T07:31:45;5.75;;;1.65;;
17917;SDS011;9084;50.956;3.106;2023-09-19T07:34:14;5.70;;;2.17;;
17917;SDS011;9084;50.956;3.106;2023-09-19T07:36:40;5.70;;;1.60;;
17917;SDS011;9084;50.956;3.106;2023-09-19T07:39:07;5.13;;;1.65;;
17917;SDS011;9084;50.956;3.106;2023-09-19T07:41:37;7.43;;;2.08;;
17917;SDS011;9084;50.956;3.106;2023-09-19T07:44:03;6.35;;;2.05;;
17917;SDS011;9084;50.956;3.106;2023-09-19T07:46:29;5.38;;;1.77;;
17917;SDS011;9084;50.956;3.106;2023-09-19T07:48:56;6.65;;;2.33;;
17917;SDS011;9084;50.956;3.106;2023-09-19T07:51:22;7.72;;;2.47;;
17917;SDS011;9084;50.956;3.106;2023-09-19T07:53:48;6.85;;;1.98;;
17917;SDS011;9084;50.956;3.106;2023-09-19T07:56:16;5.47;;;1.95;;
17917;SDS011;9084;50.956;3.106;2023-09-19T07:58:42;8.75;;;2.58;;
17917;SDS011;9084;50.956;3.106;2023-09-19T08:01:09;5.88;;;1.88;;
17917;SDS011;9084;50.956;3.106;2023-09-19T08:03:36;8.63;;;1.83;;
17917;SDS011;9084;50.956;3.106;2023-09-19T08:06:09;4.38;;;1.80;;
17917;SDS011;9084;50.956;3.106;2023-09-19T08:08:41;6.32;;;1.98;;
17917;SDS011;9084;50.956;3.106;2023-09-19T08:11:06;4.18;;;1.40;;
17917;SDS011;9084;50.956;3.106;2023-09-19T08:13:46;5.18;;;2.13;;
17917;SDS011;9084;50.956;3.106;2023-09-19T08:16:13;5.80;;;2.00;;
17917;SDS011;9084;50.956;3.106;2023-09-19T08:18:40;5.15;;;1.52;;
17917;SDS011;9084;50.956;3.106;2023-09-19T08:21:06;7.78;;;2.25;;
17917;SDS011;9084;50.956;3.106;2023-09-19T08:23:35;4.57;;;1.80;;
17917;SDS011;9084;50.956;3.106;2023-09-19T08:26:05;7.53;;;2.20;;
17917;SDS011;9084;50.956;3.106;2023-09-19T08:28:33;4.53;;;1.67;;
17917;SDS011;9084;50.956;3.106;2023-09-19T08:31:03;6.43;;;2.00;;
17917;SDS011;9084;50.956;3.106;2023-09-19T08:33:33;5.40;;;2.00;;
17917;SDS011;9084;50.956;3.106;2023-09-19T08:36:00;8.65;;;2.30;;
17917;SDS011;9084;50.956;3.106;2023-09-19T08:38:33;7.95;;;1.85;;
17917;SDS011;9084;50.956;3.106;2023-09-19T08:41:05;8.27;;;1.67;;
17917;SDS011;9084;50.956;3.106;2023-09-19T08:43:35;5.18;;;1.70;;
17917;SDS011;9084;50.956;3.106;2023-09-19T08:48:41;6.25;;;1.52;;
17917;SDS011;9084;50.956;3.106;2023-09-19T08:51:47;4.45;;;1.70;;
17917;SDS011;9084;50.956;3.106;2023-09-19T08:56:47;5.13;;;1.90;;
17917;SDS011;9084;50.956;3.106;2023-09-19T08:59:15;5.68;;;1.98;;
17917;SDS011;9084;50.956;3.106;2023-09-19T09:01:43;5.00;;;1.65;;
17917;SDS011;9084;50.956;3.106;2023-09-19T09:04:11;4.70;;;1.20;;
17917;SDS011;9084;50.956;3.106;2023-09-19T09:06:38;6.10;;;1.50;;
17917;SDS011;9084;50.956;3.106;2023-09-19T09:09:05;3.70;;;1.70;;
17917;SDS011;9084;50.956;3.106;2023-09-19T09:11:33;4.30;;;1.67;;
17917;SDS011;9084;50.956;3.106;2023-09-19T09:13:59;4.20;;;2.00;;
17917;SDS011;9084;50.956;3.106;2023-09-19T09:16:25;4.07;;;1.90;;
17917;SDS011;9084;50.956;3.106;2023-09-19T09:18:51;5.85;;;1.52;;
17917;SDS011;9084;50.956;3.106;2023-09-19T09:21:29;2.78;;;1.50;;
17917;SDS011;9084;50.956;3.106;2023-09-19T09:23:55;4.20;;;1.40;;
17917;SDS011;9084;50.956;3.106;2023-09-19T09:26:40;7.72;;;1.90;;
17917;SDS011;9084;50.956;3.106;2023-09-19T09:29:07;4.07;;;1.20;;
17917;SDS011;9084;50.956;3.106;2023-09-19T09:31:33;4.43;;;1.48;;
17917;SDS011;9084;50.956;3.106;2023-09-19T09:34:01;3.60;;;1.35;;
17917;SDS011;9084;50.956;3.106;2023-09-19T09:36:37;3.05;;;1.35;;
17917;SDS011;9084;50.956;3.106;2023-09-19T09:39:08;4.03;;;1.42;;
17917;SDS011;9084;50.956;3.106;2023-09-19T09:41:44;3.97;;;1.30;;
17917;SDS011;9084;50.956;3.106;2023-09-19T09:44:14;2.95;;;1.17;;
17917;SDS011;9084;50.956;3.106;2023-09-19T09:46:43;5.88;;;1.70;;
17917;SDS011;9084;50.956;3.106;2023-09-19T09:49:15;5.80;;;1.30;;
17917;SDS011;9084;50.956;3.106;2023-09-19T09:52:07;7.13;;;1.63;;
17917;SDS011;9084;50.956;3.106;2023-09-19T09:54:39;3.72;;;1.75;;
17917;SDS011;9084;50.956;3.106;2023-09-19T09:57:35;4.25;;;1.70;;
17917;SDS011;9084;50.956;3.106;2023-09-19T10:00:02;4.00;;;1.10;;
17917;SDS011;9084;50.956;3.106;2023-09-19T10:02:37;5.32;;;1.85;;
17917;SDS011;9084;50.956;3.106;2023-09-19T10:05:18;6.53;;;1.40;;
17917;SDS011;9084;50.956;3.106;2023-09-19T10:07:44;2.95;;;1.13;;
17917;SDS011;9084;50.956;3.106;2023-09-19T10:10:29;3.50;;;1.02;;
17917;SDS011;9084;50.956;3.106;2023-09-19T10:13:10;3.40;;;1.27;;
17917;SDS011;9084;50.956;3.106;2023-09-19T10:15:39;5.35;;;1.35;;
17917;SDS011;9084;50.956;3.106;2023-09-19T10:18:15;3.28;;;1.05;;
17917;SDS011;9084;50.956;3.106;2023-09-19T10:20:46;3.63;;;0.68;;
17917;SDS011;9084;50.956;3.106;2023-09-19T10:23:14;3.67;;;0.90;;
17917;SDS011;9084;50.956;3.106;2023-09-19T10:25:49;1.63;;;0.93;;
17917;SDS011;9084;50.956;3.106;2023-09-19T10:28:18;2.55;;;1.10;;
17917;SDS011;9084;50.956;3.106;2023-09-19T10:30:49;4.55;;;1.00;;
17917;SDS011;9084;50.956;3.106;2023-09-19T10:33:18;2.70;;;1.00;;
17917;SDS011;9084;50.956;3.106;2023-09-19T10:35:47;3.55;;;0.95;;
17917;SDS011;9084;50.956;3.106;2023-09-19T10:38:14;3.00;;;0.82;;
17917;SDS011;9084;50.956;3.106;2023-09-19T10:40:49;2.33;;;1.13;;
17917;SDS011;9084;50.956;3.106;2023-09-19T10:43:19;3.38;;;0.70;;
17917;SDS011;9084;50.956;3.106;2023-09-19T10:45:47;3.28;;;1.05;;
17917;SDS011;9084;50.956;3.106;2023-09-19T10:48:14;2.47;;;0.90;;
17917;SDS011;9084;50.956;3.106;2023-09-19T10:53:39;2.85;;;0.90;;
17917;SDS011;9084;50.956;3.106;2023-09-19T10:56:19;3.17;;;0.75;;
17917;SDS011;9084;50.956;3.106;2023-09-19T10:58:53;3.22;;;1.13;;
17917;SDS011;9084;50.956;3.106;2023-09-19T11:07:01;3.80;;;0.98;;
17917;SDS011;9084;50.956;3.106;2023-09-19T11:14:57;2.78;;;1.00;;
17917;SDS011;9084;50.956;3.106;2023-09-19T11:23:23;3.58;;;1.20;;
17917;SDS011;9084;50.956;3.106;2023-09-19T11:30:43;3.63;;;1.40;;
17917;SDS011;9084;50.956;3.106;2023-09-19T11:46:16;4.85;;;1.42;;
17917;SDS011;9084;50.956;3.106;2023-09-19T11:48:49;3.92;;;1.55;;
17917;SDS011;9084;50.956;3.106;2023-09-19T11:51:16;4.43;;;1.35;;
17917;SDS011;9084;50.956;3.106;2023-09-19T11:53:47;5.68;;;1.42;;
17917;SDS011;9084;50.956;3.106;2023-09-19T11:56:25;2.97;;;1.50;;
17917;SDS011;9084;50.956;3.106;2023-09-19T11:58:57;5.53;;;1.27;;
17917;SDS011;9084;50.956;3.106;2023-09-19T12:03:58;4.25;;;1.13;;
17917;SDS011;9084;50.956;3.106;2023-09-19T12:06:30;3.92;;;1.35;;
17917;SDS011;9084;50.956;3.106;2023-09-19T12:08:59;3.63;;;1.40;;
17917;SDS011;9084;50.956;3.106;2023-09-19T12:11:32;3.78;;;1.65;;
17917;SDS011;9084;50.956;3.106;2023-09-19T12:13:58;5.20;;;1.55;;
17917;SDS011;9084;50.956;3.106;2023-09-19T12:16:25;3.33;;;1.40;;
17917;SDS011;9084;50.956;3.106;2023-09-19T12:18:57;2.55;;;1.55;;
17917;SDS011;9084;50.956;3.106;2023-09-19T12:21:42;3.10;;;1.67;;
17917;SDS011;9084;50.956;3.106;2023-09-19T12:24:12;4.20;;;1.58;;
17917;SDS011;9084;50.956;3.106;2023-09-19T12:26:45;4.63;;;1.60;;
17917;SDS011;9084;50.956;3.106;2023-09-19T12:29:16;3.33;;;1.65;;
17917;SDS011;9084;50.956;3.106;2023-09-19T12:31:49;5.47;;;1.77;;
17917;SDS011;9084;50.956;3.106;2023-09-19T12:34:20;3.58;;;1.33;;
17917;SDS011;9084;50.956;3.106;2023-09-19T12:36:48;6.25;;;1.70;;
17917;SDS011;9084;50.956;3.106;2023-09-19T12:39:23;6.22;;;1.67;;
17917;SDS011;9084;50.956;3.106;2023-09-19T12:41:54;6.05;;;1.92;;
17917;SDS011;9084;50.956;3.106;2023-09-19T12:44:23;2.78;;;1.60;;
17917;SDS011;9084;50.956;3.106;2023-09-19T12:46:50;4.63;;;1.67;;
17917;SDS011;9084;50.956;3.106;2023-09-19T12:49:20;4.10;;;1.60;;
17917;SDS011;9084;50.956;3.106;2023-09-19T12:51:47;3.72;;;1.77;;
17917;SDS011;9084;50.956;3.106;2023-09-19T12:54:13;3.83;;;1.83;;
17917;SDS011;9084;50.956;3.106;2023-09-19T12:56:44;3.22;;;1.80;;
17917;SDS011;9084;50.956;3.106;2023-09-19T12:59:12;3.00;;;1.38;;
17917;SDS011;9084;50.956;3.106;2023-09-19T13:01:41;5.00;;;1.45;;
17917;SDS011;9084;50.956;3.106;2023-09-19T13:04:18;2.63;;;1.83;;
17917;SDS011;9084;50.956;3.106;2023-09-19T13:06:55;3.10;;;1.30;;
17917;SDS011;9084;50.956;3.106;2023-09-19T13:09:25;3.08;;;1.60;;
17917;SDS011;9084;50.956;3.106;2023-09-19T13:12:18;6.05;;;1.70;;
17917;SDS011;9084;50.956;3.106;2023-09-19T13:15:10;3.33;;;1.98;;
17917;SDS011;9084;50.956;3.106;2023-09-19T13:17:48;3.50;;;1.63;;
17917;SDS011;9084;50.956;3.106;2023-09-19T13:20:26;5.78;;;1.80;;
17917;SDS011;9084;50.956;3.106;2023-09-19T13:22:57;2.22;;;1.23;;
17917;SDS011;9084;50.956;3.106;2023-09-19T13:25:25;4.45;;;1.83;;
17917;SDS011;9084;50.956;3.106;2023-09-19T13:27:53;5.70;;;1.83;;
17917;SDS011;9084;50.956;3.106;2023-09-19T13:30:21;5.40;;;1.67;;
17917;SDS011;9084;50.956;3.106;2023-09-19T13:33:09;3.85;;;1.60;;
17917;SDS011;9084;50.956;3.106;2023-09-19T13:35:44;4.57;;;1.70;;
17917;SDS011;9084;50.956;3.106;2023-09-19T13:38:10;6.35;;;1.77;;
17917;SDS011;9084;50.956;3.106;2023-09-19T13:40:36;4.57;;;1.48;;
17917;SDS011;9084;50.956;3.106;2023-09-19T13:43:09;4.22;;;1.70;;
17917;SDS011;9084;50.956;3.106;2023-09-19T13:45:36;6.03;;;1.60;;
17917;SDS011;9084;50.956;3.106;2023-09-19T13:48:07;5.82;;;1.58;;
17917;SDS011;9084;50.956;3.106;2023-09-19T13:50:34;4.90;;;1.75;;
17917;SDS011;9084;50.956;3.106;2023-09-19T13:53:07;5.55;;;1.75;;
17917;SDS011;9084;50.956;3.106;2023-09-19T13:55:35;6.40;;;1.90;;
17917;SDS011;9084;50.956;3.106;2023-09-19T13:58:03;3.60;;;2.03;;
17917;SDS011;9084;50.956;3.106;2023-09-19T14:00:31;6.93;;;2.25;;
17917;SDS011;9084;50.956;3.106;2023-09-19T14:02:59;7.55;;;2.28;;
17917;SDS011;9084;50.956;3.106;2023-09-19T14:05:29;7.07;;;1.92;;
17917;SDS011;9084;50.956;3.106;2023-09-19T14:07:55;4.38;;;2.03;;
17917;SDS011;9084;50.956;3.106;2023-09-19T14:10:23;5.10;;;2.30;;
17917;SDS011;9084;50.956;3.106;2023-09-19T14:12:51;5.88;;;1.98;;
17917;SDS011;9084;50.956;3.106;2023-09-19T14:15:17;4.25;;;2.30;;
17917;SDS011;9084;50.956;3.106;2023-09-19T14:17:54;5.47;;;1.88;;
17917;SDS011;9084;50.956;3.106;2023-09-19T14:20:21;7.07;;;2.47;;
17917;SDS011;9084;50.956;3.106;2023-09-19T14:22:47;5.05;;;1.90;;
17917;SDS011;9084;50.956;3.106;2023-09-19T14:25:13;6.13;;;2.45;;
17917;SDS011;9084;50.956;3.106;2023-09-19T14:27:38;5.13;;;2.05;;
17917;SDS011;9084;50.956;3.106;2023-09-19T14:30:05;5.45;;;2.17;;
17917;SDS011;9084;50.956;3.106;2023-09-19T14:32:31;7.47;;;2.08;;
17917;SDS011;9084;50.956;3.106;2023-09-19T14:34:57;5.68;;;2.00;;
17917;SDS011;9084;50.956;3.106;2023-09-19T14:37:23;5.53;;;1.75;;
17917;SDS011;9084;50.956;3.106;2023-09-19T14:39:49;3.80;;;1.90;;
17917;SDS011;9084;50.956;3.106;2023-09-19T14:42:14;5.07;;;1.80;;
17917;SDS011;9084;50.956;3.106;2023-09-19T14:44:42;7.13;;;2.20;;
17917;SDS011;9084;50.956;3.106;2023-09-19T14:47:08;4.95;;;1.73;;
17917;SDS011;9084;50.956;3.106;2023-09-19T14:49:34;5.80;;;1.90;;
17917;SDS011;9084;50.956;3.106;2023-09-19T14:52:09;9.35;;;2.40;;
17917;SDS011;9084;50.956;3.106;2023-09-19T14:54:35;4.03;;;2.05;;
17917;SDS011;9084;50.956;3.106;2023-09-19T14:57:03;5.38;;;2.10;;
17917;SDS011;9084;50.956;3.106;2023-09-19T14:59:35;7.85;;;2.35;;
17917;SDS011;9084;50.956;3.106;2023-09-19T15:02:04;9.50;;;2.80;;
17917;SDS011;9084;50.956;3.106;2023-09-19T15:04:32;5.68;;;2.40;;
17917;SDS011;9084;50.956;3.106;2023-09-19T15:06:58;8.77;;;2.92;;
17917;SDS011;9084;50.956;3.106;2023-09-19T15:09:25;7.45;;;2.60;;
17917;SDS011;9084;50.956;3.106;2023-09-19T15:11:53;4.47;;;2.28;;
17917;SDS011;9084;50.956;3.106;2023-09-19T15:14:24;5.30;;;2.63;;
17917;SDS011;9084;50.956;3.106;2023-09-19T15:16:54;6.05;;;2.63;;
17917;SDS011;9084;50.956;3.106;2023-09-19T15:19:20;5.18;;;2.40;;
17917;SDS011;9084;50.956;3.106;2023-09-19T15:21:47;6.68;;;2.65;;
17917;SDS011;9084;50.956;3.106;2023-09-19T15:24:13;11.05;;;2.40;;
17917;SDS011;9084;50.956;3.106;2023-09-19T15:26:40;4.82;;;2.20;;
17917;SDS011;9084;50.956;3.106;2023-09-19T15:29:09;5.85;;;2.00;;
17917;SDS011;9084;50.956;3.106;2023-09-19T15:31:38;5.75;;;1.98;;
17917;SDS011;9084;50.956;3.106;2023-09-19T15:34:04;5.45;;;2.13;;
17917;SDS011;9084;50.956;3.106;2023-09-19T15:36:30;5.50;;;2.33;;
17917;SDS011;9084;50.956;3.106;2023-09-19T15:39:08;7.15;;;2.58;;
17917;SDS011;9084;50.956;3.106;2023-09-19T15:41:40;6.68;;;2.45;;
17917;SDS011;9084;50.956;3.106;2023-09-19T15:44:12;4.28;;;2.13;;
17917;SDS011;9084;50.956;3.106;2023-09-19T15:46:41;2.67;;;1.88;;
17917;SDS011;9084;50.956;3.106;2023-09-19T15:49:11;3.05;;;2.10;;
17917;SDS011;9084;50.956;3.106;2023-09-19T15:51:39;6.63;;;2.55;;
17917;SDS011;9084;50.956;3.106;2023-09-19T15:54:12;7.07;;;2.30;;
17917;SDS011;9084;50.956;3.106;2023-09-19T15:56:39;4.85;;;2.03;;
17917;SDS011;9084;50.956;3.106;2023-09-19T15:59:06;5.13;;;1.98;;
17917;SDS011;9084;50.956;3.106;2023-09-19T16:01:32;7.53;;;2.88;;
17917;SDS011;9084;50.956;3.106;2023-09-19T16:03:58;5.63;;;2.25;;
17917;SDS011;9084;50.956;3.106;2023-09-19T16:06:25;2.67;;;1.75;;
17917;SDS011;9084;50.956;3.106;2023-09-19T16:08:58;5.70;;;1.95;;
17917;SDS011;9084;50.956;3.106;2023-09-19T16:11:25;6.15;;;2.40;;
17917;SDS011;9084;50.956;3.106;2023-09-19T16:13:54;6.20;;;2.30;;
17917;SDS011;9084;50.956;3.106;2023-09-19T16:16:23;5.22;;;2.22;;
17917;SDS011;9084;50.956;3.106;2023-09-19T16:18:53;4.93;;;2.80;;
17917;SDS011;9084;50.956;3.106;2023-09-19T16:21:27;5.18;;;2.28;;